sensor_id;sensor_type;location;lat;lon;timestamp;pressure;altitude;pressure_sealevel;temperature;humidity
8451;BME280;4262;50.980;13.892;2022-12-01T04:32:44;50799.63;;;-142.97;72.35
8451;BME280;4262;50.980;13.892;2022-12-01T04:35:11;50797.69;;;-142.97;72.38
8451;BME280;4262;50.980;13.892;2022-12-01T04:37:38;50803.53;;;-142.97;73.67
8451;BME280;4262;50.980;13.892;2022-12-01T04:40:07;50793.78;;;-142.97;73.34
8451;BME280;4262;50.980;13.892;2022-12-01T04:42:34;50774.28;;;-142.97;72.98
8451;BME280;4262;50.980;13.892;2022-12-01T04:45:01;50784.03;;;-142.97;71.80
8451;BME280;4262;50.980;13.892;2022-12-01T04:47:28;50787.94;;;-142.97;71.90
8451;BME280;4262;50.980;13.892;2022-12-01T04:49:57;50789.88;;;-142.97;71.41
8451;BME280;4262;50.980;13.892;2022-12-01T04:52:23;50805.50;;;-142.97;71.23
8451;BME280;4262;50.980;13.892;2022-12-01T04:54:50;50791.84;;;-142.97;71.37
8451;BME280;4262;50.980;13.892;2022-12-01T04:57:17;50750.88;;;-142.97;70.93
8451;BME280;4262;50.980;13.892;2022-12-01T04:59:43;50764.53;;;-142.97;70.69
8451;BME280;4262;50.980;13.892;2022-12-01T05:02:10;50789.88;;;-142.97;71.58
8451;BME280;4262;50.980;13.892;2022-12-01T05:04:37;50789.88;;;-142.97;71.90
8451;BME280;4262;50.980;13.892;2022-12-01T05:07:07;50789.88;;;-142.97;71.77
8451;BME280;4262;50.980;13.892;2022-12-01T05:09:33;50784.03;;;-142.97;71.32
8451;BME280;4262;50.980;13.892;2022-12-01T05:12:00;50803.53;;;-142.97;71.30
8451;BME280;4262;50.980;13.892;2022-12-01T05:14:27;50782.09;;;-142.97;71.34
8451;BME280;4262;50.980;13.892;2022-12-01T05:16:53;50770.38;;;-142.97;71.80
8451;BME280;4262;50.980;13.892;2022-12-01T05:19:22;50772.34;;;-142.97;71.46
8451;BME280;4262;50.980;13.892;2022-12-01T05:22:08;50789.88;;;-142.97;71.44
8451;BME280;4262;50.980;13.892;2022-12-01T05:24:35;50793.78;;;-142.97;71.95
8451;BME280;4262;50.980;13.892;2022-12-01T05:27:02;50774.28;;;-142.97;71.58
8451;BME280;4262;50.980;13.892;2022-12-01T05:29:28;50797.69;;;-142.97;71.48
8451;BME280;4262;50.980;13.892;2022-12-01T05:31:57;50760.63;;;-142.97;71.82
8451;BME280;4262;50.980;13.892;2022-12-01T05:34:24;50782.09;;;-142.97;71.78
8451;BME280;4262;50.980;13.892;2022-12-01T05:36:51;50760.63;;;-142.97;71.99
8451;BME280;4262;50.980;13.892;2022-12-01T05:39:19;50785.97;;;-142.97;71.51
8451;BME280;4262;50.980;13.892;2022-12-01T05:41:46;50780.13;;;-142.97;71.63
8451;BME280;4262;50.980;13.892;2022-12-01T05:44:13;50807.44;;;-142.97;71.39
8451;BME280;4262;50.980;13.892;2022-12-01T05:46:40;50754.78;;;-142.97;71.81
8451;BME280;4262;50.980;13.892;2022-12-01T05:49:07;50770.38;;;-142.97;71.28
8451;BME280;4262;50.980;13.892;2022-12-01T05:51:34;50758.69;;;-142.97;70.74
8451;BME280;4262;50.980;13.892;2022-12-01T05:54:01;50784.03;;;-142.97;70.82
8451;BME280;4262;50.980;13.892;2022-12-01T05:56:30;50803.53;;;-142.97;70.33
8451;BME280;4262;50.980;13.892;2022-12-01T05:58:57;50760.63;;;-142.97;70.17
8451;BME280;4262;50.980;13.892;2022-12-01T06:01:24;50840.59;;;-142.97;70.09
8451;BME280;4262;50.980;13.892;2022-12-01T06:03:51;50770.38;;;-142.97;70.40
8451;BME280;4262;50.980;13.892;2022-12-01T06:06:18;50795.75;;;-142.97;70.04
8451;BME280;4262;50.980;13.892;2022-12-01T06:08:45;50793.78;;;-142.97;70.34
8451;BME280;4262;50.980;13.892;2022-12-01T06:11:12;50797.69;;;-142.97;71.45
8451;BME280;4262;50.980;13.892;2022-12-01T06:13:40;50780.13;;;-142.97;70.86
8451;BME280;4262;50.980;13.892;2022-12-01T06:16:07;50801.59;;;-142.97;71.05
8451;BME280;4262;50.980;13.892;2022-12-01T06:18:36;50768.44;;;-142.97;71.54
8451;BME280;4262;50.980;13.892;2022-12-01T06:21:04;50774.28;;;-142.97;72.11
8451;BME280;4262;50.980;13.892;2022-12-01T06:23:32;50793.78;;;-142.97;72.43
8451;BME280;4262;50.980;13.892;2022-12-01T06:25:59;50803.53;;;-142.97;72.72
8451;BME280;4262;50.980;13.892;2022-12-01T06:28:26;50807.44;;;-142.97;72.79
8451;BME280;4262;50.980;13.892;2022-12-01T06:30:54;50756.75;;;-142.97;72.97
8451;BME280;4262;50.980;13.892;2022-12-01T06:33:21;50774.28;;;-142.97;73.42
8451;BME280;4262;50.980;13.892;2022-12-01T06:35:55;50801.59;;;-142.97;73.43
8451;BME280;4262;50.980;13.892;2022-12-01T06:38:22;50762.59;;;-142.97;73.28
8451;BME280;4262;50.980;13.892;2022-12-01T06:40:49;50782.09;;;-142.97;73.64
8451;BME280;4262;50.980;13.892;2022-12-01T06:43:16;50774.28;;;-142.97;74.08
8451;BME280;4262;50.980;13.892;2022-12-01T06:45:42;50785.97;;;-142.97;74.41
8451;BME280;4262;50.980;13.892;2022-12-01T06:48:11;50784.03;;;-142.97;74.42
8451;BME280;4262;50.980;13.892;2022-12-01T06:50:38;50784.03;;;-142.97;74.22
8451;BME280;4262;50.980;13.892;2022-12-01T06:53:05;50805.50;;;-142.97;74.51
8451;BME280;4262;50.980;13.892;2022-12-01T06:55:33;50797.69;;;-142.97;74.21
8451;BME280;4262;50.980;13.892;2022-12-01T06:57:59;50793.78;;;-142.97;74.88
8451;BME280;4262;50.980;13.892;2022-12-01T07:00:26;50784.03;;;-142.97;74.19
8451;BME280;4262;50.980;13.892;2022-12-01T07:02:54;50778.19;;;-142.97;74.22
8451;BME280;4262;50.980;13.892;2022-12-01T07:05:22;50776.25;;;-142.97;74.24
8451;BME280;4262;50.980;13.892;2022-12-01T07:07:49;50768.44;;;-142.97;73.88
8451;BME280;4262;50.980;13.892;2022-12-01T07:10:16;50793.78;;;-142.97;74.00
8451;BME280;4262;50.980;13.892;2022-12-01T07:12:43;50776.25;;;-142.97;73.36
8451;BME280;4262;50.980;13.892;2022-12-01T07:15:10;50719.69;;;-142.97;73.45
8451;BME280;4262;50.980;13.892;2022-12-01T07:17:38;50750.88;;;-142.97;73.54
8451;BME280;4262;50.980;13.892;2022-12-01T07:20:06;50758.69;;;-142.97;73.83
8451;BME280;4262;50.980;13.892;2022-12-01T07:22:36;50793.78;;;-142.97;73.24
8451;BME280;4262;50.980;13.892;2022-12-01T07:25:04;50774.28;;;-142.97;73.61
8451;BME280;4262;50.980;13.892;2022-12-01T07:27:31;50776.25;;;-142.97;72.89
8451;BME280;4262;50.980;13.892;2022-12-01T07:29:58;50815.22;;;-142.97;72.49
8451;BME280;4262;50.980;13.892;2022-12-01T07:32:25;50785.97;;;-142.97;72.52
8451;BME280;4262;50.980;13.892;2022-12-01T07:34:52;50770.38;;;-142.97;71.80
8451;BME280;4262;50.980;13.892;2022-12-01T07:37:19;50764.53;;;-142.97;72.14
8451;BME280;4262;50.980;13.892;2022-12-01T07:39:47;50784.03;;;-142.97;72.24
8451;BME280;4262;50.980;13.892;2022-12-01T07:42:14;50758.69;;;-142.97;72.62
8451;BME280;4262;50.980;13.892;2022-12-01T07:44:41;50789.88;;;-142.97;73.15
8451;BME280;4262;50.980;13.892;2022-12-01T07:47:08;50776.25;;;-142.97;72.44
8451;BME280;4262;50.980;13.892;2022-12-01T07:49:35;50762.59;;;-142.97;72.98
8451;BME280;4262;50.980;13.892;2022-12-01T07:52:02;50764.53;;;-142.97;72.69
8451;BME280;4262;50.980;13.892;2022-12-01T07:54:29;50778.19;;;-142.97;72.04
8451;BME280;4262;50.980;13.892;2022-12-01T07:56:57;50784.03;;;-142.97;72.45
8451;BME280;4262;50.980;13.892;2022-12-01T07:59:24;50758.69;;;-142.97;71.99
8451;BME280;4262;50.980;13.892;2022-12-01T08:01:51;50799.63;;;-142.97;71.69
8451;BME280;4262;50.980;13.892;2022-12-01T08:04:18;50795.75;;;-142.97;71.54
8451;BME280;4262;50.980;13.892;2022-12-01T08:06:45;50791.84;;;-142.97;71.67
8451;BME280;4262;50.980;13.892;2022-12-01T08:09:12;50768.44;;;-142.97;71.80
8451;BME280;4262;50.980;13.892;2022-12-01T08:11:39;50760.63;;;-142.97;72.36
8451;BME280;4262;50.980;13.892;2022-12-01T08:14:07;50805.50;;;-142.97;71.96
8451;BME280;4262;50.980;13.892;2022-12-01T08:16:34;50772.34;;;-142.97;72.30
8451;BME280;4262;50.980;13.892;2022-12-01T08:19:01;50764.53;;;-142.97;72.48
8451;BME280;4262;50.980;13.892;2022-12-01T08:21:28;50785.97;;;-142.97;71.51
8451;BME280;4262;50.980;13.892;2022-12-01T08:23:56;50756.75;;;-142.97;72.26
8451;BME280;4262;50.980;13.892;2022-12-01T08:26:24;50770.38;;;-142.97;72.30
8451;BME280;4262;50.980;13.892;2022-12-01T08:28:51;50743.09;;;-142.97;72.53
8451;BME280;4262;50.980;13.892;2022-12-01T08:31:21;50785.97;;;-142.97;71.90
8451;BME280;4262;50.980;13.892;2022-12-01T08:33:50;50799.63;;;-142.97;72.02
8451;BME280;4262;50.980;13.892;2022-12-01T08:36:18;50727.50;;;-142.97;71.67
8451;BME280;4262;50.980;13.892;2022-12-01T08:38:47;50780.13;;;-142.97;72.07
8451;BME280;4262;50.980;13.892;2022-12-01T08:41:15;50776.25;;;-142.97;72.77
8451;BME280;4262;50.980;13.892;2022-12-01T08:43:42;50760.63;;;-142.97;72.82
8451;BME280;4262;50.980;13.892;2022-12-01T08:46:10;50782.09;;;-142.97;72.05
8451;BME280;4262;50.980;13.892;2022-12-01T08:48:39;50782.09;;;-142.97;71.77
8451;BME280;4262;50.980;13.892;2022-12-01T08:51:07;50776.25;;;-142.97;71.90
8451;BME280;4262;50.980;13.892;2022-12-01T08:53:37;50782.09;;;-142.97;71.12
8451;BME280;4262;50.980;13.892;2022-12-01T08:56:07;50813.28;;;-142.97;71.30
8451;BME280;4262;50.980;13.892;2022-12-01T08:58:34;50766.50;;;-142.97;72.08
8451;BME280;4262;50.980;13.892;2022-12-01T09:01:02;50762.59;;;-142.97;71.33
8451;BME280;4262;50.980;13.892;2022-12-01T09:03:29;50791.84;;;-142.97;72.01
8451;BME280;4262;50.980;13.892;2022-12-01T09:06:02;50774.28;;;-142.97;71.71
8451;BME280;4262;50.980;13.892;2022-12-01T09:08:29;50791.84;;;-142.97;72.67
8451;BME280;4262;50.980;13.892;2022-12-01T09:11:01;50760.63;;;-142.97;72.90
8451;BME280;4262;50.980;13.892;2022-12-01T09:13:29;50762.59;;;-142.97;72.86
8451;BME280;4262;50.980;13.892;2022-12-01T09:15:58;50770.38;;;-142.97;72.91
8451;BME280;4262;50.980;13.892;2022-12-01T09:18:25;50803.53;;;-142.97;72.48
8451;BME280;4262;50.980;13.892;2022-12-01T09:20:53;50789.88;;;-142.97;71.25
8451;BME280;4262;50.980;13.892;2022-12-01T09:23:22;50795.75;;;-142.97;71.51
8451;BME280;4262;50.980;13.892;2022-12-01T09:25:51;50764.53;;;-142.97;72.06
8451;BME280;4262;50.980;13.892;2022-12-01T09:28:19;50834.72;;;-142.97;71.95
8451;BME280;4262;50.980;13.892;2022-12-01T09:30:46;50770.38;;;-142.97;71.62
8451;BME280;4262;50.980;13.892;2022-12-01T09:33:14;50791.84;;;-142.97;72.11
8451;BME280;4262;50.980;13.892;2022-12-01T09:35:41;50756.75;;;-142.97;72.06
8451;BME280;4262;50.980;13.892;2022-12-01T09:38:07;50760.63;;;-142.97;71.95
8451;BME280;4262;50.980;13.892;2022-12-01T09:40:38;50762.59;;;-142.97;71.94
8451;BME280;4262;50.980;13.892;2022-12-01T09:43:11;50764.53;;;-142.97;71.54
8451;BME280;4262;50.980;13.892;2022-12-01T09:45:45;50780.13;;;-142.97;72.20
8451;BME280;4262;50.980;13.892;2022-12-01T09:48:23;50801.59;;;-142.97;71.61
8451;BME280;4262;50.980;13.892;2022-12-01T09:50:52;50752.84;;;-142.97;71.92
8451;BME280;4262;50.980;13.892;2022-12-01T09:53:21;50805.50;;;-142.97;71.95
8451;BME280;4262;50.980;13.892;2022-12-01T09:55:51;50770.38;;;-142.97;71.34
8451;BME280;4262;50.980;13.892;2022-12-01T09:58:21;50793.78;;;-142.97;71.30
8451;BME280;4262;50.980;13.892;2022-12-01T10:00:51;50807.44;;;-142.97;71.56
8451;BME280;4262;50.980;13.892;2022-12-01T10:03:29;50778.19;;;-142.97;71.12
8451;BME280;4262;50.980;13.892;2022-12-01T10:06:03;50795.75;;;-142.97;71.52
8451;BME280;4262;50.980;13.892;2022-12-01T10:08:34;50795.75;;;-142.97;71.58
8451;BME280;4262;50.980;13.892;2022-12-01T10:11:10;50776.25;;;-142.97;71.97
8451;BME280;4262;50.980;13.892;2022-12-01T10:13:39;50813.28;;;-142.97;71.22
8451;BME280;4262;50.980;13.892;2022-12-01T10:16:08;50768.44;;;-142.97;71.63
8451;BME280;4262;50.980;13.892;2022-12-01T10:18:46;50805.50;;;-142.97;71.39
8451;BME280;4262;50.980;13.892;2022-12-01T10:21:23;50791.84;;;-142.97;72.08
8451;BME280;4262;50.980;13.892;2022-12-01T10:24:16;50787.94;;;-142.97;71.90
8451;BME280;4262;50.980;13.892;2022-12-01T10:26:52;50752.84;;;-142.97;72.18
8451;BME280;4262;50.980;13.892;2022-12-01T10:29:27;50797.69;;;-142.97;71.80
8451;BME280;4262;50.980;13.892;2022-12-01T10:32:02;50754.78;;;-142.97;72.00
8451;BME280;4262;50.980;13.892;2022-12-01T10:34:33;50789.88;;;-142.97;71.92
8451;BME280;4262;50.980;13.892;2022-12-01T10:37:01;50760.63;;;-142.97;72.72
8451;BME280;4262;50.980;13.892;2022-12-01T10:39:32;50797.69;;;-142.97;71.67
8451;BME280;4262;50.980;13.892;2022-12-01T10:42:05;50797.69;;;-142.97;71.75
8451;BME280;4262;50.980;13.892;2022-12-01T10:44:34;50811.34;;;-142.97;71.85
8451;BME280;4262;50.980;13.892;2022-12-01T10:47:02;50785.97;;;-142.97;71.59
8451;BME280;4262;50.980;13.892;2022-12-01T10:49:36;50801.59;;;-142.97;70.84
8451;BME280;4262;50.980;13.892;2022-12-01T10:52:04;50782.09;;;-142.97;71.00
8451;BME280;4262;50.980;13.892;2022-12-01T10:54:34;50752.84;;;-142.97;71.01
8451;BME280;4262;50.980;13.892;2022-12-01T10:57:04;50782.09;;;-142.97;70.83
8451;BME280;4262;50.980;13.892;2022-12-01T10:59:35;50758.69;;;-142.97;71.02
8451;BME280;4262;50.980;13.892;2022-12-01T11:02:05;50747.00;;;-142.97;71.25
8451;BME280;4262;50.980;13.892;2022-12-01T11:04:42;50801.59;;;-142.97;71.13
8451;BME280;4262;50.980;13.892;2022-12-01T11:07:19;50774.28;;;-142.97;70.75
8451;BME280;4262;50.980;13.892;2022-12-01T11:09:57;50793.78;;;-142.97;70.42
8451;BME280;4262;50.980;13.892;2022-12-01T11:12:27;50776.25;;;-142.97;69.92
8451;BME280;4262;50.980;13.892;2022-12-01T11:14:55;50801.59;;;-142.97;70.30
8451;BME280;4262;50.980;13.892;2022-12-01T11:17:29;50793.78;;;-142.97;69.75
8451;BME280;4262;50.980;13.892;2022-12-01T11:19:57;50780.13;;;-142.97;70.21
8451;BME280;4262;50.980;13.892;2022-12-01T11:22:26;50747.00;;;-142.97;70.64
8451;BME280;4262;50.980;13.892;2022-12-01T11:24:59;50784.03;;;-142.97;69.31
8451;BME280;4262;50.980;13.892;2022-12-01T11:27:30;50747.00;;;-142.97;68.96
8451;BME280;4262;50.980;13.892;2022-12-01T11:30:02;50797.69;;;-142.97;68.71
8451;BME280;4262;50.980;13.892;2022-12-01T11:32:32;50764.53;;;-142.97;69.35
8451;BME280;4262;50.980;13.892;2022-12-01T11:35:03;50791.84;;;-142.97;68.85
8451;BME280;4262;50.980;13.892;2022-12-01T11:37:35;50776.25;;;-142.97;68.74
8451;BME280;4262;50.980;13.892;2022-12-01T11:40:07;50785.97;;;-142.97;67.94
8451;BME280;4262;50.980;13.892;2022-12-01T11:42:40;50752.84;;;-142.97;68.35
8451;BME280;4262;50.980;13.892;2022-12-01T11:45:22;50747.00;;;-142.97;68.32
8451;BME280;4262;50.980;13.892;2022-12-01T11:47:59;50793.78;;;-142.97;68.04
8451;BME280;4262;50.980;13.892;2022-12-01T11:50:29;50754.78;;;-142.97;67.71
8451;BME280;4262;50.980;13.892;2022-12-01T11:52:56;50787.94;;;-142.97;68.59
8451;BME280;4262;50.980;13.892;2022-12-01T11:55:24;50805.50;;;-142.97;68.89
8451;BME280;4262;50.980;13.892;2022-12-01T11:57:55;50787.94;;;-142.97;68.56
8451;BME280;4262;50.980;13.892;2022-12-01T12:00:25;50752.84;;;-142.97;67.27
8451;BME280;4262;50.980;13.892;2022-12-01T12:03:06;50801.59;;;-142.97;68.13
8451;BME280;4262;50.980;13.892;2022-12-01T12:05:43;50721.63;;;-142.97;68.66
8451;BME280;4262;50.980;13.892;2022-12-01T12:08:25;50780.13;;;-142.97;68.25
8451;BME280;4262;50.980;13.892;2022-12-01T12:10:58;50768.44;;;-142.97;69.34
8451;BME280;4262;50.980;13.892;2022-12-01T12:13:53;50770.38;;;-142.97;69.31
8451;BME280;4262;50.980;13.892;2022-12-01T12:16:35;50768.44;;;-142.97;69.55
8451;BME280;4262;50.980;13.892;2022-12-01T12:19:21;50776.25;;;-142.97;70.20
8451;BME280;4262;50.980;13.892;2022-12-01T12:22:01;50778.19;;;-142.97;70.41
8451;BME280;4262;50.980;13.892;2022-12-01T12:24:40;50797.69;;;-142.97;70.40
8451;BME280;4262;50.980;13.892;2022-12-01T12:27:16;50776.25;;;-142.97;69.43
8451;BME280;4262;50.980;13.892;2022-12-01T12:29:57;50795.75;;;-142.97;68.79
8451;BME280;4262;50.980;13.892;2022-12-01T12:32:37;50787.94;;;-142.97;68.97
8451;BME280;4262;50.980;13.892;2022-12-01T12:35:20;50789.88;;;-142.97;68.52
8451;BME280;4262;50.980;13.892;2022-12-01T12:38:00;50784.03;;;-142.97;68.93
8451;BME280;4262;50.980;13.892;2022-12-01T12:40:39;50785.97;;;-142.97;69.46
8451;BME280;4262;50.980;13.892;2022-12-01T12:43:22;50776.25;;;-142.97;69.25
8451;BME280;4262;50.980;13.892;2022-12-01T12:46:03;50784.03;;;-142.97;68.92
8451;BME280;4262;50.980;13.892;2022-12-01T12:48:44;50785.97;;;-142.97;68.95
8451;BME280;4262;50.980;13.892;2022-12-01T12:51:19;50789.88;;;-142.97;69.26
8451;BME280;4262;50.980;13.892;2022-12-01T12:53:51;50809.38;;;-142.97;69.10
8451;BME280;4262;50.980;13.892;2022-12-01T12:56:23;50737.25;;;-142.97;69.24
8451;BME280;4262;50.980;13.892;2022-12-01T12:58:55;50795.75;;;-142.97;69.29
8451;BME280;4262;50.980;13.892;2022-12-01T13:01:27;50778.19;;;-142.97;70.06
8451;BME280;4262;50.980;13.892;2022-12-01T13:03:59;50770.38;;;-142.97;69.00
8451;BME280;4262;50.980;13.892;2022-12-01T13:06:31;50762.59;;;-142.97;69.20
8451;BME280;4262;50.980;13.892;2022-12-01T13:09:03;50756.75;;;-142.97;69.27
8451;BME280;4262;50.980;13.892;2022-12-01T13:11:40;50784.03;;;-142.97;69.12
8451;BME280;4262;50.980;13.892;2022-12-01T13:14:16;50801.59;;;-142.97;69.50
8451;BME280;4262;50.980;13.892;2022-12-01T13:16:47;50832.78;;;-142.97;69.40
8451;BME280;4262;50.980;13.892;2022-12-01T13:19:19;50793.78;;;-142.97;69.27
8451;BME280;4262;50.980;13.892;2022-12-01T13:21:49;50750.88;;;-142.97;69.04
8451;BME280;4262;50.980;13.892;2022-12-01T13:24:19;50785.97;;;-142.97;68.53
8451;BME280;4262;50.980;13.892;2022-12-01T13:26:50;50787.94;;;-142.97;68.92
8451;BME280;4262;50.980;13.892;2022-12-01T13:29:21;50762.59;;;-142.97;69.12
8451;BME280;4262;50.980;13.892;2022-12-01T13:31:52;50805.50;;;-142.97;69.38
8451;BME280;4262;50.980;13.892;2022-12-01T13:34:23;50745.03;;;-142.97;69.83
8451;BME280;4262;50.980;13.892;2022-12-01T13:36:53;50789.88;;;-142.97;70.15
8451;BME280;4262;50.980;13.892;2022-12-01T13:39:22;50770.38;;;-142.97;70.16
8451;BME280;4262;50.980;13.892;2022-12-01T13:41:58;50824.97;;;-142.97;69.77
8451;BME280;4262;50.980;13.892;2022-12-01T13:44:28;50785.97;;;-142.97;70.00
8451;BME280;4262;50.980;13.892;2022-12-01T13:47:01;50803.53;;;-142.97;70.58
8451;BME280;4262;50.980;13.892;2022-12-01T13:49:37;50789.88;;;-142.97;69.94
8451;BME280;4262;50.980;13.892;2022-12-01T13:52:29;50778.19;;;-142.97;69.42
8451;BME280;4262;50.980;13.892;2022-12-01T13:58:16;50770.38;;;-142.97;69.56
8451;BME280;4262;50.980;13.892;2022-12-01T14:00:38;50791.84;;;-142.97;69.57
8451;BME280;4262;50.980;13.892;2022-12-01T14:03:36;50764.53;;;-142.97;70.41
8451;BME280;4262;50.980;13.892;2022-12-01T14:06:20;50735.28;;;-142.97;69.78
8451;BME280;4262;50.980;13.892;2022-12-01T14:08:52;50780.13;;;-142.97;70.09
8451;BME280;4262;50.980;13.892;2022-12-01T14:11:23;50764.53;;;-142.97;70.53
8451;BME280;4262;50.980;13.892;2022-12-01T14:13:53;50805.50;;;-142.97;70.37
8451;BME280;4262;50.980;13.892;2022-12-01T14:16:22;50780.13;;;-142.97;69.96
8451;BME280;4262;50.980;13.892;2022-12-01T14:18:53;50797.69;;;-142.97;70.40
8451;BME280;4262;50.980;13.892;2022-12-01T14:21:41;50799.63;;;-142.97;69.58
8451;BME280;4262;50.980;13.892;2022-12-01T14:24:20;50791.84;;;-142.97;69.51
8451;BME280;4262;50.980;13.892;2022-12-01T14:26:48;50745.03;;;-142.97;69.64
8451;BME280;4262;50.980;13.892;2022-12-01T14:29:27;50745.03;;;-142.97;70.16
8451;BME280;4262;50.980;13.892;2022-12-01T14:35:11;50795.75;;;-142.97;70.25
8451;BME280;4262;50.980;13.892;2022-12-01T14:37:46;50797.69;;;-142.97;70.18
8451;BME280;4262;50.980;13.892;2022-12-01T14:40:23;50789.88;;;-142.97;69.31
8451;BME280;4262;50.980;13.892;2022-12-01T14:42:55;50747.00;;;-142.97;69.87
8451;BME280;4262;50.980;13.892;2022-12-01T14:45:52;50811.34;;;-142.97;70.34
8451;BME280;4262;50.980;13.892;2022-12-01T14:48:25;50750.88;;;-142.97;70.18
8451;BME280;4262;50.980;13.892;2022-12-01T14:51:09;50805.50;;;-142.97;70.07
8451;BME280;4262;50.980;13.892;2022-12-01T14:53:39;50793.78;;;-142.97;69.94
8451;BME280;4262;50.980;13.892;2022-12-01T14:56:12;50801.59;;;-142.97;69.48
8451;BME280;4262;50.980;13.892;2022-12-01T14:58:51;50789.88;;;-142.97;69.29
8451;BME280;4262;50.980;13.892;2022-12-01T15:01:19;50772.34;;;-142.97;69.77
8451;BME280;4262;50.980;13.892;2022-12-01T15:03:49;50784.03;;;-142.97;69.82
8451;BME280;4262;50.980;13.892;2022-12-01T15:06:21;50785.97;;;-142.97;69.96
8451;BME280;4262;50.980;13.892;2022-12-01T15:09:03;50813.28;;;-142.97;70.13
8451;BME280;4262;50.980;13.892;2022-12-01T15:11:31;50770.38;;;-142.97;70.08
8451;BME280;4262;50.980;13.892;2022-12-01T15:13:58;50789.88;;;-142.97;69.76
8451;BME280;4262;50.980;13.892;2022-12-01T15:16:28;50770.38;;;-142.97;69.99
8451;BME280;4262;50.980;13.892;2022-12-01T15:18:56;50799.63;;;-142.97;69.88
8451;BME280;4262;50.980;13.892;2022-12-01T15:21:26;50797.69;;;-142.97;69.46
8451;BME280;4262;50.980;13.892;2022-12-01T15:23:55;50793.78;;;-142.97;69.48
8451;BME280;4262;50.980;13.892;2022-12-01T15:26:23;50768.44;;;-142.97;69.04
8451;BME280;4262;50.980;13.892;2022-12-01T15:29:04;50813.28;;;-142.97;69.52
8451;BME280;4262;50.980;13.892;2022-12-01T15:31:31;50797.69;;;-142.97;69.29
8451;BME280;4262;50.980;13.892;2022-12-01T15:33:59;50811.34;;;-142.97;68.53
8451;BME280;4262;50.980;13.892;2022-12-01T15:36:27;50823.03;;;-142.97;69.20
8451;BME280;4262;50.980;13.892;2022-12-01T15:38:54;50772.34;;;-142.97;68.49
8451;BME280;4262;50.980;13.892;2022-12-01T15:41:23;50770.38;;;-142.97;67.90
8451;BME280;4262;50.980;13.892;2022-12-01T15:43:54;50791.84;;;-142.97;67.73
8451;BME280;4262;50.980;13.892;2022-12-01T15:46:26;50801.59;;;-142.97;67.34
8451;BME280;4262;50.980;13.892;2022-12-01T15:49:05;50793.78;;;-142.97;67.53
8451;BME280;4262;50.980;13.892;2022-12-01T15:51:34;50799.63;;;-142.97;68.09
8451;BME280;4262;50.980;13.892;2022-12-01T15:54:01;50803.53;;;-142.97;68.29
8451;BME280;4262;50.980;13.892;2022-12-01T15:56:30;50807.44;;;-142.97;68.35
8451;BME280;4262;50.980;13.892;2022-12-01T15:59:02;50805.50;;;-142.97;68.20
8451;BME280;4262;50.980;13.892;2022-12-01T16:01:33;50805.50;;;-142.97;68.84
8451;BME280;4262;50.980;13.892;2022-12-01T16:04:01;50758.69;;;-142.97;68.83
8451;BME280;4262;50.980;13.892;2022-12-01T16:06:32;50780.13;;;-142.97;69.12
8451;BME280;4262;50.980;13.892;2022-12-01T16:09:03;50787.94;;;-142.97;69.20
8451;BME280;4262;50.980;13.892;2022-12-01T16:11:31;50782.09;;;-142.97;68.86
8451;BME280;4262;50.980;13.892;2022-12-01T16:14:01;50793.78;;;-142.97;68.59
8451;BME280;4262;50.980;13.892;2022-12-01T16:16:35;50799.63;;;-142.97;68.34
8451;BME280;4262;50.980;13.892;2022-12-01T16:19:17;50821.09;;;-142.97;68.02
8451;BME280;4262;50.980;13.892;2022-12-01T16:21:50;50760.63;;;-142.97;68.10
8451;BME280;4262;50.980;13.892;2022-12-01T16:24:21;50801.59;;;-142.97;68.36
8451;BME280;4262;50.980;13.892;2022-12-01T16:26:51;50789.88;;;-142.97;68.27
8451;BME280;4262;50.980;13.892;2022-12-01T16:29:20;50772.34;;;-142.97;68.76
8451;BME280;4262;50.980;13.892;2022-12-01T16:31:49;50817.19;;;-142.97;68.88
8451;BME280;4262;50.980;13.892;2022-12-01T16:34:19;50793.78;;;-142.97;68.96
8451;BME280;4262;50.980;13.892;2022-12-01T16:36:47;50768.44;;;-142.97;68.66
8451;BME280;4262;50.980;13.892;2022-12-01T16:39:13;50789.88;;;-142.97;69.57
8451;BME280;4262;50.980;13.892;2022-12-01T16:41:42;50782.09;;;-142.97;69.65
8451;BME280;4262;50.980;13.892;2022-12-01T16:44:12;50813.28;;;-142.97;69.22
8451;BME280;4262;50.980;13.892;2022-12-01T16:49:14;50801.59;;;-142.97;68.65
8451;BME280;4262;50.980;13.892;2022-12-01T16:51:41;50768.44;;;-142.97;68.28
8451;BME280;4262;50.980;13.892;2022-12-01T16:54:08;50821.09;;;-142.97;68.16
8451;BME280;4262;50.980;13.892;2022-12-01T16:56:35;50739.19;;;-142.97;68.30
8451;BME280;4262;50.980;13.892;2022-12-01T16:59:03;50762.59;;;-142.97;68.30
8451;BME280;4262;50.980;13.892;2022-12-01T17:01:31;50791.84;;;-142.97;68.07
8451;BME280;4262;50.980;13.892;2022-12-01T17:03:58;50772.34;;;-142.97;67.77
8451;BME280;4262;50.980;13.892;2022-12-01T17:06:25;50811.34;;;-142.97;67.77
8451;BME280;4262;50.980;13.892;2022-12-01T17:08:52;50828.88;;;-142.97;67.65
8451;BME280;4262;50.980;13.892;2022-12-01T17:11:19;50819.13;;;-142.97;67.65
8451;BME280;4262;50.980;13.892;2022-12-01T17:13:46;50782.09;;;-142.97;67.75
8451;BME280;4262;50.980;13.892;2022-12-01T17:16:14;50787.94;;;-142.97;67.47
8451;BME280;4262;50.980;13.892;2022-12-01T17:18:40;50821.09;;;-142.97;67.71
8451;BME280;4262;50.980;13.892;2022-12-01T17:21:09;50785.97;;;-142.97;67.57
8451;BME280;4262;50.980;13.892;2022-12-01T17:23:37;50793.78;;;-142.97;67.57
8451;BME280;4262;50.980;13.892;2022-12-01T17:26:07;50774.28;;;-142.97;67.19
8451;BME280;4262;50.980;13.892;2022-12-01T17:28:34;50815.22;;;-142.97;67.20
8451;BME280;4262;50.980;13.892;2022-12-01T17:31:02;50778.19;;;-142.97;67.05
8451;BME280;4262;50.980;13.892;2022-12-01T17:33:30;50789.88;;;-142.97;66.71
8451;BME280;4262;50.980;13.892;2022-12-01T17:36:01;50815.22;;;-142.97;66.42
8451;BME280;4262;50.980;13.892;2022-12-01T17:38:29;50789.88;;;-142.97;66.88
8451;BME280;4262;50.980;13.892;2022-12-01T17:41:03;50789.88;;;-142.97;66.78
8451;BME280;4262;50.980;13.892;2022-12-01T17:43:31;50797.69;;;-142.97;66.23
8451;BME280;4262;50.980;13.892;2022-12-01T17:45:58;50801.59;;;-142.97;65.91
8451;BME280;4262;50.980;13.892;2022-12-01T17:48:25;50803.53;;;-142.97;66.19